createdAt,value
2019-02-19T00:01:15.745Z,2.20
2019-02-19T00:03:43.084Z,2.20
2019-02-19T00:06:10.453Z,2.20
2019-02-19T00:08:38.188Z,2.20
2019-02-19T00:11:05.852Z,2.20
2019-02-19T00:13:33.394Z,2.10
2019-02-19T00:16:00.608Z,2.10
2019-02-19T00:18:27.818Z,2.10
2019-02-19T00:20:55.390Z,2.10
2019-02-19T00:23:22.522Z,2.00
2019-02-19T00:25:49.716Z,2.00
2019-02-19T00:28:16.954Z,1.90
2019-02-19T00:30:44.629Z,1.90
2019-02-19T00:33:12.019Z,1.90
2019-02-19T00:35:39.418Z,1.80
2019-02-19T00:38:06.700Z,1.80
2019-02-19T00:40:34.074Z,1.80
2019-02-19T00:43:01.305Z,1.70
2019-02-19T00:45:28.652Z,1.70
2019-02-19T00:47:55.936Z,1.70
2019-02-19T00:50:23.302Z,1.60
2019-02-19T00:52:50.418Z,1.60
2019-02-19T00:55:17.911Z,1.60
2019-02-19T00:57:45.192Z,1.50
2019-02-19T01:00:13.221Z,1.50
2019-02-19T01:02:40.696Z,1.50
2019-02-19T01:05:08.140Z,1.50
2019-02-19T01:07:35.593Z,1.50
2019-02-19T01:10:03.603Z,1.50
2019-02-19T01:12:30.800Z,1.50
2019-02-19T01:14:58.036Z,1.60
2019-02-19T01:17:25.380Z,1.60
2019-02-19T01:19:52.790Z,1.60
2019-02-19T01:22:20.139Z,1.60
2019-02-19T01:24:47.505Z,1.70
2019-02-19T01:27:14.932Z,1.70
2019-02-19T01:29:43.427Z,1.60
2019-02-19T01:32:10.633Z,1.60
2019-02-19T01:34:37.996Z,1.60
2019-02-19T01:37:05.419Z,1.60
2019-02-19T01:39:32.639Z,1.60
2019-02-19T01:41:59.976Z,1.50
2019-02-19T01:44:27.093Z,1.50
2019-02-19T01:46:54.377Z,1.60
2019-02-19T01:49:21.643Z,1.60
2019-02-19T01:51:48.919Z,1.50
2019-02-19T01:54:16.021Z,1.50
2019-02-19T01:56:43.369Z,1.50
2019-02-19T01:59:10.658Z,1.50
2019-02-19T02:01:38.079Z,1.50
2019-02-19T02:04:05.402Z,1.50
2019-02-19T02:06:32.668Z,1.40
2019-02-19T02:08:59.948Z,1.40
2019-02-19T02:11:27.165Z,1.40
2019-02-19T02:13:54.513Z,1.30
2019-02-19T02:16:21.578Z,1.40
2019-02-19T02:18:48.861Z,1.30
2019-02-19T02:21:16.537Z,1.40
2019-02-19T02:23:43.996Z,1.40
2019-02-19T02:26:11.435Z,1.30
2019-02-19T02:28:38.675Z,1.30
2019-02-19T02:31:06.032Z,1.30
2019-02-19T02:33:33.281Z,1.30
2019-02-19T02:36:00.369Z,1.40
2019-02-19T02:38:27.815Z,1.40
2019-02-19T02:40:55.154Z,1.40
2019-02-19T02:43:22.542Z,1.40
2019-02-19T02:45:53.198Z,1.40
2019-02-19T02:48:19.196Z,1.30
2019-02-19T02:50:46.661Z,1.30
2019-02-19T02:53:13.964Z,1.30
2019-02-19T02:55:41.127Z,1.20
2019-02-19T02:58:08.572Z,1.20
2019-02-19T03:00:35.799Z,1.20
2019-02-19T03:03:03.689Z,1.20
2019-02-19T03:05:31.099Z,1.20
2019-02-19T03:08:02.022Z,1.20
2019-02-19T03:10:29.404Z,1.30
2019-02-19T03:12:56.756Z,1.30
2019-02-19T03:15:24.087Z,1.30
2019-02-19T03:17:51.373Z,1.20
2019-02-19T03:20:19.024Z,1.20
2019-02-19T03:22:46.357Z,1.20
2019-02-19T03:25:13.741Z,1.20
2019-02-19T03:27:41.361Z,1.20
2019-02-19T03:30:09.755Z,1.30
2019-02-19T03:32:37.111Z,1.20
2019-02-19T03:35:04.570Z,1.20
2019-02-19T03:37:31.702Z,1.30
2019-02-19T03:39:59.087Z,1.30
2019-02-19T03:42:26.573Z,1.30
2019-02-19T03:44:53.830Z,1.30
2019-02-19T03:47:21.173Z,1.40
2019-02-19T03:49:48.389Z,1.40
2019-02-19T03:52:15.633Z,1.50
2019-02-19T03:54:42.981Z,1.50
2019-02-19T03:57:10.312Z,1.50
2019-02-19T03:59:37.657Z,1.60
2019-02-19T04:02:04.931Z,1.60
2019-02-19T04:04:32.323Z,1.60
2019-02-19T04:06:59.711Z,1.60
2019-02-19T04:09:26.898Z,1.60
2019-02-19T04:11:54.122Z,1.70
2019-02-19T04:14:21.466Z,1.70
2019-02-19T04:16:48.991Z,1.70
2019-02-19T04:19:16.276Z,1.70
2019-02-19T04:21:43.810Z,1.70
2019-02-19T04:24:11.224Z,1.70
2019-02-19T04:26:38.449Z,1.70
2019-02-19T04:29:05.849Z,1.70
2019-02-19T04:31:32.958Z,1.80
2019-02-19T04:34:00.233Z,1.80
2019-02-19T04:36:28.407Z,1.70
2019-02-19T04:38:55.775Z,1.70
2019-02-19T04:41:22.850Z,1.70
2019-02-19T04:43:50.076Z,1.70
2019-02-19T04:46:17.411Z,1.70
2019-02-19T04:48:44.492Z,1.70
2019-02-19T04:51:12.118Z,1.70
2019-02-19T04:53:39.366Z,1.60
2019-02-19T04:56:07.517Z,1.60
2019-02-19T04:58:34.647Z,1.60
2019-02-19T05:01:02.021Z,1.50
2019-02-19T05:03:29.245Z,1.50
2019-02-19T05:05:56.341Z,1.50
2019-02-19T05:08:23.700Z,1.50
2019-02-19T05:10:50.938Z,1.60
2019-02-19T05:13:18.251Z,1.60
2019-02-19T05:15:45.715Z,1.60
2019-02-19T05:18:13.133Z,1.60
2019-02-19T05:20:40.399Z,1.60
2019-02-19T05:23:07.569Z,1.50
2019-02-19T05:25:34.922Z,1.50
2019-02-19T05:28:02.032Z,1.50
2019-02-19T05:30:29.450Z,1.50
2019-02-19T05:32:56.837Z,1.50
2019-02-19T05:35:24.078Z,1.40
2019-02-19T05:37:51.432Z,1.50
2019-02-19T05:40:18.718Z,1.50
2019-02-19T05:42:46.165Z,1.40
2019-02-19T05:45:14.467Z,1.40
2019-02-19T05:47:41.829Z,1.40
2019-02-19T05:50:09.071Z,1.40
2019-02-19T05:52:36.266Z,1.40
2019-02-19T05:55:03.994Z,1.40
2019-02-19T05:57:31.297Z,1.40
2019-02-19T05:59:58.616Z,1.40
2019-02-19T06:02:26.231Z,1.50
2019-02-19T06:04:53.435Z,1.50
2019-02-19T06:07:20.534Z,1.50
2019-02-19T06:09:47.787Z,1.60
2019-02-19T06:12:14.889Z,1.60
2019-02-19T06:14:42.155Z,1.70
2019-02-19T06:17:09.352Z,1.70
2019-02-19T06:19:36.577Z,1.80
2019-02-19T06:22:03.932Z,1.90
2019-02-19T06:24:31.390Z,2.00
2019-02-19T06:26:59.910Z,2.10
2019-02-19T06:29:27.281Z,2.20
2019-02-19T06:31:54.671Z,2.20
2019-02-19T06:34:22.007Z,2.20
2019-02-19T06:36:49.397Z,2.30
2019-02-19T06:39:16.632Z,2.40
2019-02-19T06:41:43.844Z,2.40
2019-02-19T06:44:11.083Z,2.50
2019-02-19T06:46:38.467Z,2.60
2019-02-19T06:49:06.050Z,2.70
2019-02-19T06:51:34.115Z,2.80
2019-02-19T06:54:02.268Z,2.90
2019-02-19T06:56:30.178Z,3.00
2019-02-19T06:58:57.835Z,3.00
2019-02-19T07:01:43.828Z,3.00
2019-02-19T07:04:18.620Z,3.10
2019-02-19T07:06:46.522Z,3.20
2019-02-19T07:09:14.288Z,3.20
2019-02-19T07:11:42.523Z,3.20
2019-02-19T07:14:10.457Z,3.30
2019-02-19T07:16:38.166Z,3.40
2019-02-19T07:19:06.136Z,3.40
2019-02-19T07:21:34.096Z,3.50
2019-02-19T07:24:04.508Z,3.50
2019-02-19T07:26:31.367Z,3.60
2019-02-19T07:28:59.267Z,3.60
2019-02-19T07:31:27.024Z,3.70
2019-02-19T07:33:54.754Z,3.70
2019-02-19T07:36:22.555Z,3.70
2019-02-19T07:38:50.405Z,3.80
2019-02-19T07:41:19.432Z,3.80
2019-02-19T07:43:47.239Z,3.90
2019-02-19T07:46:15.083Z,4.00
2019-02-19T07:48:42.973Z,4.00
2019-02-19T07:51:10.931Z,4.10
2019-02-19T07:53:38.917Z,4.20
2019-02-19T07:56:06.732Z,4.30
2019-02-19T07:58:34.398Z,4.30
2019-02-19T08:01:02.759Z,4.40
2019-02-19T08:03:30.750Z,4.50
2019-02-19T08:05:58.562Z,4.60
2019-02-19T08:08:26.632Z,4.60
2019-02-19T08:10:54.989Z,4.70
2019-02-19T08:13:23.001Z,4.80
2019-02-19T08:15:50.604Z,4.90
2019-02-19T08:18:18.406Z,5.00
2019-02-19T08:20:46.228Z,5.10
2019-02-19T08:23:14.247Z,5.20
2019-02-19T08:25:42.256Z,5.30
2019-02-19T08:28:10.179Z,5.40
2019-02-19T08:30:38.271Z,5.40
2019-02-19T08:33:06.183Z,5.60
2019-02-19T08:35:34.058Z,5.60
2019-02-19T08:38:01.639Z,5.70
2019-02-19T08:40:30.124Z,5.70
2019-02-19T08:42:58.285Z,5.80
2019-02-19T08:45:26.235Z,5.90
2019-02-19T08:47:55.842Z,5.90
2019-02-19T08:50:23.887Z,6.00
2019-02-19T08:52:51.826Z,6.10
2019-02-19T08:55:19.937Z,6.20
2019-02-19T08:57:47.898Z,6.20
2019-02-19T09:00:15.920Z,6.30
2019-02-19T09:02:50.229Z,6.30
2019-02-19T09:05:19.217Z,6.40
2019-02-19T09:07:47.098Z,6.40
2019-02-19T09:10:14.975Z,6.50
2019-02-19T09:12:42.909Z,6.50
2019-02-19T09:15:11.322Z,6.60
2019-02-19T09:17:39.286Z,6.70
2019-02-19T09:20:07.338Z,6.70
2019-02-19T09:22:35.352Z,6.70
2019-02-19T09:25:03.538Z,6.80
2019-02-19T09:27:31.629Z,6.90
2019-02-19T09:29:59.958Z,6.90
2019-02-19T09:32:28.220Z,7.00
2019-02-19T09:34:56.397Z,7.00
2019-02-19T09:37:24.101Z,7.10
2019-02-19T09:39:52.161Z,7.20
2019-02-19T09:42:19.933Z,7.30
2019-02-19T09:44:47.676Z,7.30
2019-02-19T09:47:15.798Z,7.40
2019-02-19T09:49:43.605Z,7.40
2019-02-19T09:52:11.762Z,7.40
2019-02-19T09:54:39.736Z,7.50
2019-02-19T09:57:07.740Z,7.50
2019-02-19T09:59:35.514Z,7.50
2019-02-19T10:02:03.859Z,7.60
2019-02-19T10:04:32.390Z,7.60
2019-02-19T10:07:00.292Z,7.60
2019-02-19T10:09:28.130Z,7.70
2019-02-19T10:11:56.081Z,7.70
2019-02-19T10:14:24.080Z,7.70
2019-02-19T10:16:54.958Z,7.80
2019-02-19T10:19:22.802Z,7.80
2019-02-19T10:21:50.387Z,7.80
2019-02-19T10:24:18.181Z,7.80
2019-02-19T10:26:46.014Z,7.90
2019-02-19T10:29:14.084Z,7.90
2019-02-19T10:31:41.991Z,7.90
2019-02-19T10:34:09.936Z,7.90
2019-02-19T10:36:38.613Z,8.00
2019-02-19T10:39:10.245Z,8.10
2019-02-19T10:41:38.725Z,8.30
2019-02-19T10:44:06.359Z,8.50
2019-02-19T10:46:34.364Z,8.60
2019-02-19T10:49:02.309Z,8.80
2019-02-19T10:51:30.229Z,8.80
2019-02-19T10:53:58.767Z,9.00
2019-02-19T10:56:26.663Z,9.00
2019-02-19T10:58:54.592Z,9.10
2019-02-19T11:01:22.599Z,9.20
2019-02-19T11:03:50.281Z,9.30
2019-02-19T11:06:18.430Z,9.40
2019-02-19T11:08:46.368Z,9.60
2019-02-19T11:11:14.551Z,9.60
2019-02-19T11:13:42.548Z,9.70
2019-02-19T11:16:10.690Z,9.90
2019-02-19T11:18:38.778Z,9.90
2019-02-19T11:21:06.537Z,10.00
2019-02-19T11:23:34.708Z,10.00
2019-02-19T11:26:03.594Z,10.10
2019-02-19T11:28:31.384Z,10.20
2019-02-19T11:30:59.405Z,10.30
2019-02-19T11:33:27.206Z,10.40
2019-02-19T11:35:55.061Z,10.40
2019-02-19T11:38:23.138Z,10.50
2019-02-19T11:40:51.162Z,10.40
2019-02-19T11:43:18.992Z,10.50
2019-02-19T11:45:47.127Z,10.50
2019-02-19T11:48:14.990Z,10.60
2019-02-19T11:50:43.024Z,10.50
2019-02-19T11:53:11.314Z,10.50
2019-02-19T11:55:39.235Z,10.50
2019-02-19T11:58:07.048Z,10.50
2019-02-19T12:00:37.529Z,10.50
2019-02-19T12:03:05.748Z,10.50
2019-02-19T12:05:33.661Z,10.60
2019-02-19T12:08:01.345Z,10.50
2019-02-19T12:10:29.290Z,10.50
2019-02-19T12:12:58.371Z,10.50
2019-02-19T12:15:34.704Z,10.40
2019-02-19T12:17:56.401Z,10.40
2019-02-19T12:20:24.014Z,10.40
2019-02-19T12:22:51.832Z,10.40
2019-02-19T12:25:19.757Z,10.40
2019-02-19T12:27:47.813Z,10.40
2019-02-19T12:30:15.747Z,10.40
2019-02-19T12:32:43.687Z,10.40
2019-02-19T12:35:11.643Z,10.40
2019-02-19T12:37:39.733Z,10.40
2019-02-19T12:40:08.818Z,10.40
2019-02-19T12:42:36.885Z,10.50
2019-02-19T12:45:05.449Z,10.50
2019-02-19T12:47:33.169Z,10.50
2019-02-19T12:50:00.699Z,10.50
2019-02-19T12:52:28.545Z,10.50
2019-02-19T12:54:56.528Z,10.60
2019-02-19T12:57:24.577Z,10.60
2019-02-19T12:59:56.654Z,10.70
2019-02-19T13:02:22.452Z,10.70
2019-02-19T13:04:51.555Z,10.80
2019-02-19T13:07:19.596Z,10.80
2019-02-19T13:09:48.034Z,10.80
2019-02-19T13:12:16.361Z,10.80
2019-02-19T13:14:44.212Z,10.70
2019-02-19T13:17:12.830Z,10.70
2019-02-19T13:19:40.685Z,10.60
2019-02-19T13:22:08.555Z,10.60
2019-02-19T13:24:36.294Z,10.60
2019-02-19T13:27:05.421Z,10.50
2019-02-19T13:29:33.291Z,10.40
2019-02-19T13:32:00.982Z,10.30
2019-02-19T13:34:29.849Z,10.30
2019-02-19T13:36:57.584Z,10.20
2019-02-19T13:39:25.576Z,10.20
2019-02-19T13:41:53.405Z,10.20
2019-02-19T13:44:21.593Z,10.20
2019-02-19T13:46:49.226Z,10.10
2019-02-19T13:49:17.101Z,10.10
2019-02-19T13:51:44.990Z,10.10
2019-02-19T13:54:20.239Z,10.00
2019-02-19T13:56:48.278Z,10.00
2019-02-19T13:59:16.536Z,10.00
2019-02-19T14:01:44.476Z,10.00
2019-02-19T14:04:14.129Z,9.90
2019-02-19T14:06:41.843Z,9.90
2019-02-19T14:09:09.931Z,9.90
2019-02-19T14:11:38.094Z,9.90
2019-02-19T14:14:28.301Z,9.80
2019-02-19T14:16:59.368Z,9.80
2019-02-19T14:19:48.144Z,9.80
2019-02-19T14:22:47.314Z,9.80
2019-02-19T14:25:33.553Z,9.80
2019-02-19T14:28:19.440Z,9.80
2019-02-19T14:31:07.706Z,9.80
2019-02-19T14:33:51.956Z,9.70
2019-02-19T14:36:45.132Z,9.70
2019-02-19T14:39:38.563Z,9.70
2019-02-19T14:42:24.892Z,9.70
2019-02-19T14:45:12.386Z,9.70
2019-02-19T14:47:47.739Z,9.60
2019-02-19T14:50:35.154Z,9.60
2019-02-19T14:53:20.700Z,9.60
2019-02-19T14:56:17.188Z,9.60
2019-02-19T14:59:03.287Z,9.50
2019-02-19T15:01:49.259Z,9.50
2019-02-19T15:04:48.930Z,9.40
2019-02-19T15:07:35.073Z,9.40
2019-02-19T15:10:21.179Z,9.40
2019-02-19T15:13:17.115Z,9.40
2019-02-19T15:15:52.522Z,9.40
2019-02-19T15:18:45.589Z,9.30
2019-02-19T15:21:31.391Z,9.30
2019-02-19T15:24:18.888Z,9.30
2019-02-19T15:27:24.566Z,9.30
2019-02-19T15:30:31.011Z,9.30
2019-02-19T15:33:16.917Z,9.30
2019-02-19T15:36:03.167Z,9.20
2019-02-19T15:38:50.964Z,9.30
2019-02-19T15:41:36.745Z,9.20
2019-02-19T15:44:24.251Z,9.20
2019-02-19T15:47:11.886Z,9.20
2019-02-19T15:49:59.191Z,9.20
2019-02-19T15:52:46.684Z,9.20
2019-02-19T15:55:33.538Z,9.10
2019-02-19T15:58:09.907Z,9.10
2019-02-19T16:00:43.256Z,9.10
2019-02-19T16:03:40.884Z,9.10
2019-02-19T16:06:31.276Z,9.10
2019-02-19T16:09:06.193Z,9.10
2019-02-19T16:11:46.666Z,9.00
2019-02-19T16:14:49.231Z,9.00
2019-02-19T16:17:42.773Z,9.00
2019-02-19T16:20:42.310Z,9.00
2019-02-19T16:23:19.400Z,9.00
2019-02-19T16:25:57.454Z,9.00
2019-02-19T16:28:36.815Z,8.90
2019-02-19T16:31:21.353Z,8.90
2019-02-19T16:34:00.518Z,8.90
2019-02-19T16:36:40.787Z,8.80
2019-02-19T16:39:17.773Z,8.80
2019-02-19T16:42:04.396Z,8.70
2019-02-19T16:44:42.800Z,8.70
2019-02-19T16:47:21.915Z,8.70
2019-02-19T16:50:06.870Z,8.70
2019-02-19T16:52:52.485Z,8.60
2019-02-19T16:55:39.879Z,8.60
2019-02-19T16:58:16.608Z,8.60
2019-02-19T17:01:01.663Z,8.60
2019-02-19T17:04:03.392Z,8.60
2019-02-19T17:06:56.437Z,8.50
2019-02-19T17:09:45.379Z,8.50
2019-02-19T17:12:32.210Z,8.50
2019-02-19T17:15:14.075Z,8.40
2019-02-19T17:18:00.305Z,8.40
2019-02-19T17:20:36.967Z,8.40
2019-02-19T17:23:24.458Z,8.40
2019-02-19T17:26:04.356Z,8.30
2019-02-19T17:28:49.511Z,8.30
2019-02-19T17:31:42.772Z,8.30
2019-02-19T17:34:28.801Z,8.30
2019-02-19T17:37:16.441Z,8.30
2019-02-19T17:40:06.765Z,8.20
2019-02-19T17:42:53.190Z,8.20
2019-02-19T17:45:39.510Z,8.20
2019-02-19T17:48:25.787Z,8.20
2019-02-19T17:51:15.639Z,8.10
2019-02-19T17:53:59.005Z,8.10
2019-02-19T17:56:44.615Z,8.10
2019-02-19T17:59:30.984Z,8.10
2019-02-19T18:02:09.835Z,8.10
2019-02-19T18:05:04.557Z,8.10
2019-02-19T18:08:06.753Z,8.00
2019-02-19T18:10:54.207Z,8.00
2019-02-19T18:13:44.136Z,7.90
2019-02-19T18:16:29.858Z,7.90
2019-02-19T18:18:57.875Z,7.90
2019-02-19T18:21:25.940Z,7.80
2019-02-19T18:23:53.977Z,7.80
2019-02-19T18:26:21.883Z,7.80
2019-02-19T18:28:50.233Z,7.80
2019-02-19T18:31:21.074Z,7.70
2019-02-19T18:33:50.278Z,7.70
2019-02-19T18:36:17.972Z,7.60
2019-02-19T18:38:45.880Z,7.60
2019-02-19T18:41:13.775Z,7.50
2019-02-19T18:43:41.818Z,7.50
2019-02-19T18:46:09.757Z,7.40
2019-02-19T18:48:37.780Z,7.30
2019-02-19T18:51:05.544Z,7.30
2019-02-19T18:53:33.307Z,7.20
2019-02-19T18:56:05.113Z,7.20
2019-02-19T18:58:32.920Z,7.10
2019-02-19T19:01:00.906Z,7.10
2019-02-19T19:03:28.930Z,7.00
2019-02-19T19:05:56.810Z,7.00
2019-02-19T19:08:24.901Z,6.90
2019-02-19T19:10:52.647Z,6.80
2019-02-19T19:13:20.584Z,6.80
2019-02-19T19:15:49.587Z,6.60
2019-02-19T19:18:19.285Z,6.60
2019-02-19T19:20:47.285Z,6.50
2019-02-19T19:23:15.270Z,6.40
2019-02-19T19:25:43.316Z,6.30
2019-02-19T19:28:11.330Z,6.30
2019-02-19T19:30:39.467Z,6.20
2019-02-19T19:33:07.486Z,6.20
2019-02-19T19:35:35.416Z,6.10
2019-02-19T19:38:04.482Z,6.00
2019-02-19T19:40:32.509Z,6.00
2019-02-19T19:43:00.485Z,5.90
2019-02-19T19:45:28.656Z,5.80
2019-02-19T19:47:56.620Z,5.80
2019-02-19T19:50:24.915Z,5.70
2019-02-19T19:52:52.955Z,5.70
2019-02-19T19:55:20.718Z,5.60
2019-02-19T19:57:48.565Z,5.60
2019-02-19T20:00:16.783Z,5.50
2019-02-19T20:02:44.739Z,5.40
2019-02-19T20:05:12.590Z,5.40
2019-02-19T20:07:40.963Z,5.30
2019-02-19T20:10:10.070Z,5.30
2019-02-19T20:12:38.022Z,5.30
2019-02-19T20:15:07.545Z,5.30
2019-02-19T20:17:35.615Z,5.20
2019-02-19T20:20:04.308Z,5.20
2019-02-19T20:22:32.495Z,5.20
2019-02-19T20:25:00.624Z,5.20
2019-02-19T20:27:28.653Z,5.20
2019-02-19T20:29:56.437Z,5.10
2019-02-19T20:32:24.558Z,5.10
2019-02-19T20:34:52.700Z,5.10
2019-02-19T20:37:22.166Z,5.00
2019-02-19T20:39:50.496Z,5.00
2019-02-19T20:42:22.353Z,5.00
2019-02-19T20:44:50.440Z,4.90
2019-02-19T20:47:18.743Z,4.90
2019-02-19T20:49:46.891Z,4.90
2019-02-19T20:52:15.964Z,4.90
2019-02-19T20:54:43.947Z,4.90
2019-02-19T20:57:11.860Z,4.90
2019-02-19T20:59:39.873Z,4.90
2019-02-19T21:02:07.752Z,4.80
2019-02-19T21:04:36.046Z,4.80
2019-02-19T21:07:04.095Z,4.80
2019-02-19T21:09:42.986Z,4.70
2019-02-19T21:12:02.325Z,4.70
2019-02-19T21:14:30.654Z,4.70
2019-02-19T21:16:59.047Z,4.60
2019-02-19T21:19:26.812Z,4.60
2019-02-19T21:21:54.716Z,4.50
2019-02-19T21:24:23.141Z,4.50
2019-02-19T21:26:51.107Z,4.50
2019-02-19T21:29:19.305Z,4.50
2019-02-19T21:31:47.218Z,4.40
2019-02-19T21:34:15.165Z,4.40
2019-02-19T21:36:43.440Z,4.30
2019-02-19T21:39:11.278Z,4.30
2019-02-19T21:41:40.416Z,4.30
2019-02-19T21:44:08.541Z,4.20
2019-02-19T21:46:37.203Z,4.20
2019-02-19T21:49:05.936Z,4.20
2019-02-19T21:51:33.990Z,4.10
2019-02-19T21:54:02.453Z,4.10
2019-02-19T21:56:30.844Z,4.00
2019-02-19T21:58:59.606Z,4.00
2019-02-19T22:01:27.794Z,3.90
2019-02-19T22:03:56.993Z,3.80
2019-02-19T22:06:24.954Z,3.80
2019-02-19T22:08:53.770Z,3.80
2019-02-19T22:11:21.922Z,3.80
2019-02-19T22:13:50.207Z,3.70
2019-02-19T22:16:18.467Z,3.70
2019-02-19T22:18:46.517Z,3.70
2019-02-19T22:21:22.296Z,3.70
2019-02-19T22:23:50.324Z,3.60
2019-02-19T22:26:18.286Z,3.60
2019-02-19T22:28:46.239Z,3.50
2019-02-19T22:31:14.191Z,3.50
2019-02-19T22:33:41.968Z,3.50
2019-02-19T22:36:10.219Z,3.50
2019-02-19T22:38:37.806Z,3.50
2019-02-19T22:41:07.482Z,3.50
2019-02-19T22:43:35.592Z,3.50
2019-02-19T22:46:04.431Z,3.50
2019-02-19T22:48:32.426Z,3.40
2019-02-19T22:51:00.581Z,3.40
2019-02-19T22:53:52.907Z,3.30
2019-02-19T22:56:26.745Z,3.30
2019-02-19T22:58:54.909Z,3.20
2019-02-19T23:01:42.734Z,3.20
2019-02-19T23:04:10.818Z,3.20
2019-02-19T23:06:39.168Z,3.10
2019-02-19T23:09:07.977Z,3.00
2019-02-19T23:11:36.349Z,3.00
2019-02-19T23:14:05.253Z,3.00
2019-02-19T23:16:33.976Z,2.90
2019-02-19T23:19:02.263Z,2.90
2019-02-19T23:21:30.476Z,2.80
2019-02-19T23:23:58.255Z,2.80
2019-02-19T23:26:26.146Z,2.90
2019-02-19T23:28:54.177Z,2.90
2019-02-19T23:31:22.340Z,2.90
2019-02-19T23:33:50.341Z,2.90
2019-02-19T23:36:37.849Z,2.80
2019-02-19T23:39:06.534Z,2.80
2019-02-19T23:41:36.105Z,2.70
2019-02-19T23:44:03.994Z,2.60
2019-02-19T23:46:31.724Z,2.60
2019-02-19T23:48:59.521Z,2.60
2019-02-19T23:51:27.529Z,2.60
2019-02-19T23:53:55.485Z,2.60
2019-02-19T23:56:24.527Z,2.60
2019-02-19T23:58:52.565Z,2.60
